createdAt,value
2022-10-06T00:00:16.188Z,97
2022-10-06T00:05:16.174Z,97
2022-10-06T00:10:16.236Z,97
2022-10-06T00:15:16.201Z,97
2022-10-06T00:20:16.050Z,97
2022-10-06T00:25:16.270Z,97
2022-10-06T00:30:16.162Z,97
2022-10-06T00:35:16.219Z,97
2022-10-06T00:40:16.203Z,97
2022-10-06T00:45:16.331Z,97
2022-10-06T00:50:16.197Z,97
2022-10-06T00:55:16.241Z,97
2022-10-06T01:00:16.231Z,97
2022-10-06T01:05:16.446Z,97
2022-10-06T01:10:16.471Z,97
2022-10-06T01:15:16.287Z,97
2022-10-06T01:20:16.297Z,97
2022-10-06T01:25:16.497Z,97
2022-10-06T01:30:16.263Z,97
2022-10-06T01:35:16.392Z,97
2022-10-06T01:40:16.528Z,97
2022-10-06T01:45:16.309Z,97
2022-10-06T01:50:16.304Z,97
2022-10-06T01:55:16.345Z,97
2022-10-06T02:00:16.440Z,97
2022-10-06T02:05:16.415Z,97
2022-10-06T02:10:16.359Z,97
2022-10-06T02:15:16.483Z,97
2022-10-06T02:20:16.345Z,97
2022-10-06T02:25:16.378Z,97
2022-10-06T02:30:16.474Z,97
2022-10-06T02:35:16.459Z,97
2022-10-06T02:40:16.425Z,97
2022-10-06T02:45:16.581Z,97
2022-10-06T02:50:16.379Z,97
2022-10-06T02:55:16.525Z,97
2022-10-06T03:00:16.594Z,97
2022-10-06T03:05:16.582Z,97
2022-10-06T03:10:16.532Z,97
2022-10-06T03:15:16.513Z,97
2022-10-06T03:20:16.605Z,97
2022-10-06T03:25:16.764Z,97
2022-10-06T03:30:16.498Z,97
2022-10-06T03:35:16.605Z,97
2022-10-06T03:40:16.492Z,97
2022-10-06T03:45:16.583Z,97
2022-10-06T03:50:16.702Z,97
2022-10-06T03:55:16.542Z,97
2022-10-06T04:00:15.559Z,97
2022-10-06T04:05:15.680Z,97
2022-10-06T04:10:15.702Z,97
2022-10-06T04:15:15.610Z,97
2022-10-06T04:20:15.623Z,97
2022-10-06T04:25:15.747Z,97
2022-10-06T04:30:15.715Z,97
2022-10-06T04:35:15.841Z,97
2022-10-06T04:40:15.677Z,97
2022-10-06T04:45:15.686Z,97
2022-10-06T04:50:15.695Z,97
2022-10-06T04:55:15.771Z,97
2022-10-06T05:00:15.680Z,97
2022-10-06T05:05:15.731Z,97
2022-10-06T05:10:15.836Z,97
2022-10-06T05:15:15.696Z,97
2022-10-06T05:20:15.902Z,97
2022-10-06T05:25:15.711Z,97
2022-10-06T05:30:16.001Z,97
2022-10-06T05:35:15.804Z,97
2022-10-06T05:40:15.712Z,97
2022-10-06T05:45:15.922Z,97
2022-10-06T05:50:15.782Z,97
2022-10-06T05:55:15.971Z,97
2022-10-06T06:00:15.889Z,97
2022-10-06T06:05:15.802Z,97
2022-10-06T06:10:15.885Z,97
2022-10-06T06:15:15.973Z,97
2022-10-06T06:20:15.755Z,97
2022-10-06T06:25:16.005Z,97
2022-10-06T06:30:15.881Z,97
2022-10-06T06:35:15.916Z,97
2022-10-06T06:40:15.910Z,97
2022-10-06T06:45:15.855Z,97
2022-10-06T06:50:15.938Z,97
2022-10-06T06:55:15.932Z,97
2022-10-06T07:00:15.867Z,97
2022-10-06T07:05:16.087Z,97
2022-10-06T07:10:16.032Z,97
2022-10-06T07:15:16.134Z,97
2022-10-06T07:20:16.091Z,97
2022-10-06T07:25:16.047Z,97
2022-10-06T07:30:15.974Z,97
2022-10-06T07:35:15.973Z,97
2022-10-06T07:40:16.040Z,97
2022-10-06T07:45:16.169Z,97
2022-10-06T07:50:16.056Z,97
2022-10-06T07:55:16.049Z,97
2022-10-06T08:00:16.068Z,97
2022-10-06T08:05:16.077Z,97
2022-10-06T08:10:16.272Z,97
2022-10-06T08:15:16.060Z,97
2022-10-06T08:20:16.227Z,97
2022-10-06T08:25:16.526Z,97
2022-10-06T08:30:16.127Z,97
2022-10-06T08:35:16.377Z,97
2022-10-06T08:40:16.139Z,97
2022-10-06T08:45:16.127Z,97
2022-10-06T08:50:16.384Z,97
2022-10-06T08:55:16.170Z,97
2022-10-06T09:00:19.572Z,97
2022-10-06T09:05:16.397Z,97
2022-10-06T09:10:16.201Z,97
2022-10-06T09:15:16.205Z,97
2022-10-06T09:20:16.233Z,97
2022-10-06T09:25:16.167Z,97
2022-10-06T09:30:16.307Z,97
2022-10-06T09:35:16.173Z,97
2022-10-06T09:40:16.362Z,97
2022-10-06T09:45:16.322Z,97
2022-10-06T09:50:16.251Z,97
2022-10-06T09:55:16.304Z,97
2022-10-06T10:00:16.791Z,97
2022-10-06T10:05:16.347Z,97
2022-10-06T10:10:16.490Z,97
2022-10-06T10:15:16.290Z,97
2022-10-06T10:20:16.227Z,97
2022-10-06T10:25:16.424Z,96
2022-10-06T10:30:16.408Z,96
2022-10-06T10:35:16.439Z,96
2022-10-06T10:40:16.475Z,96
2022-10-06T10:45:16.436Z,96
2022-10-06T10:50:16.448Z,96
2022-10-06T10:55:16.400Z,96
2022-10-06T11:00:16.440Z,96
2022-10-06T11:05:16.468Z,96
2022-10-06T11:10:16.529Z,96
2022-10-06T11:15:16.497Z,96
2022-10-06T11:20:16.515Z,96
2022-10-06T11:25:16.451Z,96
2022-10-06T11:30:16.532Z,96
2022-10-06T11:35:16.542Z,96
2022-10-06T11:40:16.501Z,96
2022-10-06T11:45:16.578Z,96
2022-10-06T11:50:16.621Z,96
2022-10-06T11:55:16.512Z,96
2022-10-06T12:00:16.598Z,95
2022-10-06T12:05:54.678Z,95
2022-10-06T12:10:16.501Z,96
2022-10-06T12:17:08.522Z,96
2022-10-06T12:17:18.301Z,96
2022-10-06T12:20:16.552Z,96
2022-10-06T12:25:16.618Z,96
2022-10-06T12:30:16.637Z,95
2022-10-06T12:35:16.755Z,95
2022-10-06T12:40:16.758Z,95
2022-10-06T12:45:16.771Z,95
2022-10-06T12:50:16.735Z,95
2022-10-06T12:55:16.893Z,95
2022-10-06T13:00:16.714Z,95
2022-10-06T13:05:16.688Z,95
2022-10-06T13:10:16.784Z,95
2022-10-06T13:15:16.763Z,94
2022-10-06T13:20:16.721Z,94
2022-10-06T13:25:16.666Z,94
2022-10-06T13:30:16.870Z,93
2022-10-06T13:35:16.870Z,93
2022-10-06T13:40:21.951Z,92
2022-10-06T13:45:16.698Z,91
2022-10-06T13:50:19.793Z,92
2022-10-06T13:55:16.914Z,91
2022-10-06T14:00:16.794Z,91
2022-10-06T14:05:16.895Z,91
2022-10-06T14:10:16.900Z,90
2022-10-06T14:15:16.947Z,89
2022-10-06T14:20:16.760Z,88
2022-10-06T14:25:16.897Z,87
2022-10-06T14:30:16.789Z,88
2022-10-06T14:35:16.865Z,88
2022-10-06T14:40:16.856Z,89
2022-10-06T14:45:16.861Z,89
2022-10-06T14:50:16.868Z,89
2022-10-06T14:55:16.889Z,88
2022-10-06T15:00:16.880Z,88
2022-10-06T15:05:17.023Z,88
2022-10-06T15:10:16.894Z,87
2022-10-06T15:15:17.181Z,87
2022-10-06T15:20:17.249Z,86
2022-10-06T15:25:16.880Z,85
2022-10-06T15:30:16.948Z,85
2022-10-06T15:35:17.067Z,84
2022-10-06T15:40:17.188Z,84
2022-10-06T15:45:16.986Z,82
2022-10-06T15:50:18.925Z,82
2022-10-06T15:55:17.126Z,82
2022-10-06T16:00:17.042Z,82
2022-10-06T16:05:17.061Z,82
2022-10-06T16:10:17.154Z,82
2022-10-06T16:15:17.129Z,82
2022-10-06T16:20:17.006Z,82
2022-10-06T16:25:17.209Z,82
2022-10-06T16:30:17.077Z,82
2022-10-06T16:35:18.521Z,81
2022-10-06T16:40:17.209Z,81
2022-10-06T16:45:17.101Z,81
2022-10-06T16:50:17.085Z,81
2022-10-06T16:55:17.107Z,81
2022-10-06T17:00:17.126Z,81
2022-10-06T17:05:17.423Z,80
2022-10-06T17:10:20.688Z,80
2022-10-06T17:15:17.146Z,80
2022-10-06T17:20:17.212Z,81
2022-10-06T17:25:17.230Z,79
2022-10-06T17:30:17.251Z,80
2022-10-06T17:35:17.519Z,78
2022-10-06T17:40:17.191Z,77
2022-10-06T17:45:21.050Z,77
2022-10-06T17:50:17.255Z,76
2022-10-06T17:55:17.336Z,70
2022-10-06T18:00:17.281Z,72
2022-10-06T18:05:17.297Z,73
2022-10-06T18:10:17.276Z,72
2022-10-06T18:15:17.298Z,73
2022-10-06T18:20:17.217Z,71
2022-10-06T18:25:17.331Z,68
2022-10-06T18:30:17.404Z,68
2022-10-06T18:36:28.602Z,67
2022-10-06T18:40:17.313Z,66
2022-10-06T18:45:17.358Z,65
2022-10-06T18:50:17.415Z,65
2022-10-06T18:55:17.468Z,66
2022-10-06T19:00:15.311Z,66
2022-10-06T19:05:15.417Z,66
2022-10-06T19:10:15.392Z,65
2022-10-06T19:15:20.020Z,65
2022-10-06T19:20:15.455Z,66
2022-10-06T19:25:15.568Z,66
2022-10-06T19:30:15.706Z,66
2022-10-06T19:35:15.604Z,66
2022-10-06T19:40:15.477Z,67
2022-10-06T19:45:15.447Z,67
2022-10-06T19:50:15.682Z,66
2022-10-06T19:55:15.481Z,66
2022-10-06T20:00:15.473Z,60
2022-10-06T20:05:15.537Z,62
2022-10-06T20:10:15.679Z,61
2022-10-06T20:15:15.907Z,64
2022-10-06T20:20:15.441Z,63
2022-10-06T20:25:15.873Z,53
2022-10-06T20:30:15.547Z,50
2022-10-06T20:35:15.542Z,63
2022-10-06T20:40:15.740Z,65
2022-10-06T20:45:15.667Z,66
2022-10-06T20:50:15.643Z,66
2022-10-06T20:55:15.618Z,66
2022-10-06T21:00:15.652Z,65
2022-10-06T21:05:15.669Z,67
2022-10-06T21:10:15.612Z,71
2022-10-06T21:15:15.787Z,73
2022-10-06T21:20:15.626Z,74
2022-10-06T21:25:15.621Z,75
2022-10-06T21:30:15.786Z,76
2022-10-06T21:35:15.812Z,76
2022-10-06T21:40:15.667Z,76
2022-10-06T21:45:15.814Z,76
2022-10-06T21:50:15.792Z,77
2022-10-06T21:55:15.713Z,76
2022-10-06T22:00:15.702Z,77
2022-10-06T22:05:15.818Z,77
2022-10-06T22:10:15.943Z,78
2022-10-06T22:15:15.785Z,78
2022-10-06T22:20:15.776Z,77
2022-10-06T22:25:15.983Z,78
2022-10-06T22:30:15.929Z,78
2022-10-06T22:35:15.943Z,79
2022-10-06T22:40:15.856Z,79
2022-10-06T22:45:15.829Z,79
2022-10-06T22:50:15.820Z,79
2022-10-06T22:55:15.945Z,80
2022-10-06T23:00:15.855Z,81
2022-10-06T23:05:15.899Z,81
2022-10-06T23:10:15.898Z,82
2022-10-06T23:15:16.111Z,82
2022-10-06T23:20:15.911Z,83
2022-10-06T23:25:15.937Z,84
2022-10-06T23:30:15.929Z,85
2022-10-06T23:35:15.929Z,85
2022-10-06T23:40:15.975Z,85
2022-10-06T23:45:15.902Z,86
2022-10-06T23:50:15.937Z,86
2022-10-06T23:55:16.006Z,87
